createdAt,value
2022-09-18T00:00:37.723Z,1010.37
2022-09-18T00:01:37.792Z,1010.36
2022-09-18T00:02:37.732Z,1010.38
2022-09-18T00:03:37.714Z,1010.40
2022-09-18T00:04:37.708Z,1010.42
2022-09-18T00:05:37.843Z,1010.40
2022-09-18T00:06:37.705Z,1010.45
2022-09-18T00:07:37.702Z,1010.43
2022-09-18T00:08:37.704Z,1010.42
2022-09-18T00:09:37.704Z,1010.47
2022-09-18T00:10:37.692Z,1010.43
2022-09-18T00:11:37.690Z,1010.40
2022-09-18T00:12:37.688Z,1010.39
2022-09-18T00:13:37.684Z,1010.41
2022-09-18T00:14:37.686Z,1010.37
2022-09-18T00:15:37.683Z,1010.44
2022-09-18T00:16:37.750Z,1010.43
2022-09-18T00:17:37.674Z,1010.38
2022-09-18T00:18:37.670Z,1010.39
2022-09-18T00:19:37.667Z,1010.41
2022-09-18T00:20:37.661Z,1010.35
2022-09-18T00:21:37.780Z,1010.35
2022-09-18T00:22:37.663Z,1010.38
2022-09-18T00:23:37.656Z,1010.36
2022-09-18T00:24:37.656Z,1010.39
2022-09-18T00:25:37.649Z,1010.42
2022-09-18T00:26:37.649Z,1010.44
2022-09-18T00:27:37.643Z,1010.39
2022-09-18T00:28:37.641Z,1010.40
2022-09-18T00:29:37.638Z,1010.42
2022-09-18T00:30:37.637Z,1010.42
2022-09-18T00:31:37.691Z,1010.41
2022-09-18T00:32:37.634Z,1010.43
2022-09-18T00:33:37.635Z,1010.41
2022-09-18T00:34:37.624Z,1010.39
2022-09-18T00:35:37.621Z,1010.39
2022-09-18T00:36:37.620Z,1010.40
2022-09-18T00:37:37.734Z,1010.39
2022-09-18T00:38:37.614Z,1010.38
2022-09-18T00:39:37.610Z,1010.37
2022-09-18T00:40:37.695Z,1010.38
2022-09-18T00:41:37.606Z,1010.39
2022-09-18T00:42:37.606Z,1010.38
2022-09-18T00:43:37.601Z,1010.38
2022-09-18T00:44:37.600Z,1010.38
2022-09-18T00:45:37.596Z,1010.41
2022-09-18T00:46:37.703Z,1010.38
2022-09-18T00:47:37.588Z,1010.43
2022-09-18T00:48:37.585Z,1010.39
2022-09-18T00:49:37.598Z,1010.46
2022-09-18T00:50:37.586Z,1010.41
2022-09-18T00:51:37.578Z,1010.43
2022-09-18T00:52:37.578Z,1010.37
2022-09-18T00:53:37.688Z,1010.43
2022-09-18T00:54:37.574Z,1010.40
2022-09-18T00:55:37.567Z,1010.43
2022-09-18T00:56:37.569Z,1010.42
2022-09-18T00:57:37.561Z,1010.42
2022-09-18T00:58:37.560Z,1010.40
2022-09-18T00:59:37.555Z,1010.36
2022-09-18T01:00:37.611Z,1010.40
2022-09-18T01:01:37.643Z,1010.44
2022-09-18T01:02:37.553Z,1010.46
2022-09-18T01:03:37.545Z,1010.47
2022-09-18T01:04:37.548Z,1010.47
2022-09-18T01:05:37.541Z,1010.50
2022-09-18T01:06:37.542Z,1010.51
2022-09-18T01:07:37.534Z,1010.52
2022-09-18T01:08:41.783Z,1010.51
2022-09-18T01:09:37.649Z,1010.51
2022-09-18T01:10:37.529Z,1010.50
2022-09-18T01:11:37.527Z,1010.50
2022-09-18T01:12:37.524Z,1010.53
2022-09-18T01:13:37.522Z,1010.52
2022-09-18T01:14:37.516Z,1010.51
2022-09-18T01:15:37.513Z,1010.51
2022-09-18T01:16:37.573Z,1010.52
2022-09-18T01:17:37.513Z,1010.56
2022-09-18T01:18:37.506Z,1010.49
2022-09-18T01:19:37.503Z,1010.51
2022-09-18T01:20:37.553Z,1010.52
2022-09-18T01:21:37.498Z,1010.53
2022-09-18T01:22:37.497Z,1010.52
2022-09-18T01:23:37.493Z,1010.54
2022-09-18T01:24:37.490Z,1010.55
2022-09-18T01:25:37.605Z,1010.55
2022-09-18T01:26:37.492Z,1010.53
2022-09-18T01:27:37.484Z,1010.56
2022-09-18T01:28:37.480Z,1010.52
2022-09-18T01:29:37.480Z,1010.53
2022-09-18T01:30:37.485Z,1010.56
2022-09-18T01:31:37.526Z,1010.54
2022-09-18T01:32:37.474Z,1010.53
2022-09-18T01:33:37.465Z,1010.53
2022-09-18T01:34:37.465Z,1010.52
2022-09-18T01:35:41.485Z,1010.50
2022-09-18T01:36:37.460Z,1010.54
2022-09-18T01:37:37.457Z,1010.52
2022-09-18T01:38:37.452Z,1010.46
2022-09-18T01:39:37.453Z,1010.51
2022-09-18T01:40:37.502Z,1010.54
2022-09-18T01:41:37.561Z,1010.54
2022-09-18T01:42:37.454Z,1010.53
2022-09-18T01:43:37.439Z,1010.54
2022-09-18T01:44:37.438Z,1010.50
2022-09-18T01:45:37.435Z,1010.52
2022-09-18T01:46:37.536Z,1010.54
2022-09-18T01:47:37.428Z,1010.51
2022-09-18T01:48:37.428Z,1010.49
2022-09-18T01:49:37.423Z,1010.48
2022-09-18T01:50:37.420Z,1010.47
2022-09-18T01:51:37.423Z,1010.51
2022-09-18T01:52:37.418Z,1010.49
2022-09-18T01:53:37.416Z,1010.46
2022-09-18T01:54:37.414Z,1010.50
2022-09-18T01:55:37.412Z,1010.50
2022-09-18T01:56:37.407Z,1010.45
2022-09-18T01:57:37.539Z,1010.41
2022-09-18T01:58:37.401Z,1010.45
2022-09-18T01:59:37.401Z,1010.39
2022-09-18T02:00:37.397Z,1010.40
2022-09-18T02:01:37.568Z,1010.36
2022-09-18T02:02:37.513Z,1010.39
2022-09-18T02:03:37.389Z,1010.34
2022-09-18T02:04:37.383Z,1010.32
2022-09-18T02:05:37.384Z,1010.40
2022-09-18T02:06:37.382Z,1010.36
2022-09-18T02:07:37.378Z,1010.32
2022-09-18T02:08:37.374Z,1010.31
2022-09-18T02:09:37.376Z,1010.28
2022-09-18T02:10:37.370Z,1010.32
2022-09-18T02:11:37.371Z,1010.29
2022-09-18T02:12:37.368Z,1010.27
2022-09-18T02:13:37.385Z,1010.26
2022-09-18T02:14:37.363Z,1010.32
2022-09-18T02:15:37.356Z,1010.34
2022-09-18T02:16:37.364Z,1010.37
2022-09-18T02:17:37.350Z,1010.33
2022-09-18T02:18:37.352Z,1010.32
2022-09-18T02:19:37.353Z,1010.31
2022-09-18T02:20:37.746Z,1010.31
2022-09-18T02:21:37.342Z,1010.33
2022-09-18T02:22:37.338Z,1010.31
2022-09-18T02:23:37.333Z,1010.31
2022-09-18T02:24:37.336Z,1010.36
2022-09-18T02:25:37.329Z,1010.35
2022-09-18T02:26:37.330Z,1010.29
2022-09-18T02:27:37.323Z,1010.35
2022-09-18T02:28:37.324Z,1010.33
2022-09-18T02:29:37.432Z,1010.35
2022-09-18T02:30:37.315Z,1010.31
2022-09-18T02:31:37.402Z,1010.30
2022-09-18T02:32:37.310Z,1010.34
2022-09-18T02:33:37.311Z,1010.33
2022-09-18T02:34:37.307Z,1010.29
2022-09-18T02:35:37.308Z,1010.30
2022-09-18T02:36:37.303Z,1010.29
2022-09-18T02:37:37.304Z,1010.31
2022-09-18T02:38:37.301Z,1010.29
2022-09-18T02:39:37.294Z,1010.24
2022-09-18T02:40:37.364Z,1010.24
2022-09-18T02:41:37.289Z,1010.23
2022-09-18T02:42:37.291Z,1010.24
2022-09-18T02:43:37.282Z,1010.18
2022-09-18T02:44:37.281Z,1010.11
2022-09-18T02:45:37.397Z,1010.10
2022-09-18T02:46:37.422Z,1010.04
2022-09-18T02:47:37.271Z,1010.00
2022-09-18T02:48:37.275Z,1009.99
2022-09-18T02:49:37.267Z,1010.02
2022-09-18T02:50:37.269Z,1010.03
2022-09-18T02:51:37.263Z,1010.03
2022-09-18T02:52:37.260Z,1010.03
2022-09-18T02:53:37.260Z,1010.02
2022-09-18T02:54:37.253Z,1010.00
2022-09-18T02:55:37.250Z,1010.05
2022-09-18T02:56:37.253Z,1010.05
2022-09-18T02:57:37.247Z,1010.06
2022-09-18T02:58:37.243Z,1010.07
2022-09-18T02:59:37.240Z,1010.09
2022-09-18T03:00:37.241Z,1010.10
2022-09-18T03:01:37.503Z,1010.10
2022-09-18T03:02:37.332Z,1010.14
2022-09-18T03:03:37.230Z,1010.15
2022-09-18T03:04:37.232Z,1010.21
2022-09-18T03:05:37.224Z,1010.17
2022-09-18T03:06:37.225Z,1010.14
2022-09-18T03:07:37.220Z,1010.14
2022-09-18T03:08:37.217Z,1010.11
2022-09-18T03:09:37.214Z,1010.12
2022-09-18T03:10:37.215Z,1010.15
2022-09-18T03:11:37.211Z,1010.14
2022-09-18T03:12:37.208Z,1010.15
2022-09-18T03:13:37.207Z,1010.19
2022-09-18T03:14:37.205Z,1010.20
2022-09-18T03:15:37.211Z,1010.18
2022-09-18T03:16:37.302Z,1010.18
2022-09-18T03:17:37.317Z,1010.14
2022-09-18T03:18:37.196Z,1010.21
2022-09-18T03:19:37.195Z,1010.13
2022-09-18T03:20:37.388Z,1010.13
2022-09-18T03:21:37.183Z,1010.07
2022-09-18T03:22:37.183Z,1010.07
2022-09-18T03:23:37.179Z,1010.04
2022-09-18T03:24:37.177Z,1010.05
2022-09-18T03:25:37.174Z,1010.07
2022-09-18T03:26:37.172Z,1010.08
2022-09-18T03:27:37.167Z,1010.09
2022-09-18T03:28:37.170Z,1010.11
2022-09-18T03:29:37.162Z,1010.11
2022-09-18T03:30:37.164Z,1010.09
2022-09-18T03:31:37.251Z,1010.09
2022-09-18T03:32:37.157Z,1010.10
2022-09-18T03:33:37.265Z,1010.07
2022-09-18T03:34:37.152Z,1010.07
2022-09-18T03:35:37.150Z,1010.05
2022-09-18T03:36:37.153Z,1010.09
2022-09-18T03:37:37.143Z,1010.08
2022-09-18T03:38:37.139Z,1010.11
2022-09-18T03:39:37.137Z,1010.13
2022-09-18T03:40:37.201Z,1010.16
2022-09-18T03:41:37.137Z,1010.18
2022-09-18T03:42:37.131Z,1010.14
2022-09-18T03:43:37.128Z,1010.13
2022-09-18T03:44:37.123Z,1010.13
2022-09-18T03:45:37.122Z,1010.14
2022-09-18T03:46:37.170Z,1010.12
2022-09-18T03:47:37.119Z,1010.19
2022-09-18T03:48:37.119Z,1010.21
2022-09-18T03:49:37.236Z,1010.23
2022-09-18T03:50:37.112Z,1010.19
2022-09-18T03:51:37.107Z,1010.18
2022-09-18T03:52:37.102Z,1010.18
2022-09-18T03:53:37.099Z,1010.18
2022-09-18T03:54:37.103Z,1010.19
2022-09-18T03:55:37.095Z,1010.19
2022-09-18T03:56:37.093Z,1010.14
2022-09-18T03:57:37.090Z,1010.14
2022-09-18T03:58:37.090Z,1010.16
2022-09-18T03:59:37.090Z,1010.16
2022-09-18T04:00:37.090Z,1010.16
2022-09-18T04:01:37.128Z,1010.16
2022-09-18T04:02:37.107Z,1010.14
2022-09-18T04:03:37.072Z,1010.10
2022-09-18T04:04:37.074Z,1010.12
2022-09-18T04:05:37.188Z,1010.14
2022-09-18T04:06:37.072Z,1010.13
2022-09-18T04:07:37.064Z,1010.09
2022-09-18T04:08:37.060Z,1010.13
2022-09-18T04:09:37.057Z,1010.13
2022-09-18T04:10:37.058Z,1010.10
2022-09-18T04:11:37.051Z,1010.06
2022-09-18T04:12:37.048Z,1010.09
2022-09-18T04:13:37.048Z,1010.11
2022-09-18T04:14:37.050Z,1010.10
2022-09-18T04:15:37.043Z,1010.10
2022-09-18T04:16:37.067Z,1010.14
2022-09-18T04:17:37.049Z,1010.09
2022-09-18T04:18:37.032Z,1010.11
2022-09-18T04:19:37.033Z,1010.14
2022-09-18T04:20:37.027Z,1010.11
2022-09-18T04:21:37.147Z,1010.12
2022-09-18T04:22:37.028Z,1010.12
2022-09-18T04:23:37.022Z,1010.13
2022-09-18T04:24:37.023Z,1010.12
2022-09-18T04:25:37.013Z,1010.16
2022-09-18T04:26:37.017Z,1010.16
2022-09-18T04:27:37.011Z,1010.15
2022-09-18T04:28:37.006Z,1010.15
2022-09-18T04:29:37.005Z,1010.18
2022-09-18T04:30:37.015Z,1010.24
2022-09-18T04:31:37.075Z,1010.20
2022-09-18T04:32:36.992Z,1010.15
2022-09-18T04:33:36.993Z,1010.15
2022-09-18T04:34:36.987Z,1010.13
2022-09-18T04:35:36.990Z,1010.13
2022-09-18T04:36:36.983Z,1010.12
2022-09-18T04:37:37.107Z,1010.13
2022-09-18T04:38:36.986Z,1010.16
2022-09-18T04:39:36.976Z,1010.15
2022-09-18T04:40:37.092Z,1010.15
2022-09-18T04:41:36.972Z,1010.17
2022-09-18T04:42:36.968Z,1010.13
2022-09-18T04:43:36.967Z,1010.12
2022-09-18T04:44:36.962Z,1010.13
2022-09-18T04:45:36.964Z,1010.15
2022-09-18T04:46:37.056Z,1010.16
2022-09-18T04:47:36.957Z,1010.19
2022-09-18T04:48:36.951Z,1010.19
2022-09-18T04:49:36.951Z,1010.15
2022-09-18T04:50:36.944Z,1010.16
2022-09-18T04:51:36.942Z,1010.20
2022-09-18T04:52:36.942Z,1010.19
2022-09-18T04:53:37.055Z,1010.19
2022-09-18T04:54:36.933Z,1010.23
2022-09-18T04:55:36.936Z,1010.19
2022-09-18T04:56:36.930Z,1010.14
2022-09-18T04:57:36.927Z,1010.15
2022-09-18T04:58:36.924Z,1010.19
2022-09-18T04:59:37.008Z,1010.14
2022-09-18T05:00:36.958Z,1010.13
2022-09-18T05:01:36.949Z,1010.16
2022-09-18T05:02:36.912Z,1010.13
2022-09-18T05:03:36.909Z,1010.12
2022-09-18T05:04:36.907Z,1010.13
2022-09-18T05:05:36.913Z,1010.12
2022-09-18T05:06:36.902Z,1010.07
2022-09-18T05:07:36.901Z,1010.08
2022-09-18T05:08:36.902Z,1010.06
2022-09-18T05:09:37.070Z,1010.04
2022-09-18T05:10:36.894Z,1010.03
2022-09-18T05:11:36.893Z,1010.04
2022-09-18T05:12:36.886Z,1010.05
2022-09-18T05:13:36.910Z,1010.04
2022-09-18T05:14:36.886Z,1010.03
2022-09-18T05:15:36.881Z,1010.00
2022-09-18T05:16:36.949Z,1010.05
2022-09-18T05:17:36.880Z,1010.03
2022-09-18T05:18:36.870Z,1010.07
2022-09-18T05:19:36.881Z,1010.05
2022-09-18T05:20:36.868Z,1010.08
2022-09-18T05:21:36.870Z,1010.05
2022-09-18T05:22:36.867Z,1010.03
2022-09-18T05:23:36.867Z,1010.02
2022-09-18T05:24:36.859Z,1010.02
2022-09-18T05:25:36.969Z,1010.06
2022-09-18T05:26:36.853Z,1010.01
2022-09-18T05:27:36.849Z,1010.03
2022-09-18T05:28:36.847Z,1010.01
2022-09-18T05:29:36.845Z,1010.04
2022-09-18T05:30:36.842Z,1010.04
2022-09-18T05:31:36.896Z,1010.06
2022-09-18T05:32:36.837Z,1010.04
2022-09-18T05:33:36.850Z,1010.04
2022-09-18T05:34:36.832Z,1010.07
2022-09-18T05:35:36.839Z,1010.08
2022-09-18T05:36:36.833Z,1010.04
2022-09-18T05:37:36.839Z,1010.00
2022-09-18T05:38:36.836Z,1010.02
2022-09-18T05:39:36.824Z,1009.98
2022-09-18T05:40:36.870Z,1010.04
2022-09-18T05:41:36.930Z,1010.03
2022-09-18T05:42:36.810Z,1010.02
2022-09-18T05:43:36.807Z,1010.06
2022-09-18T05:44:36.807Z,1010.09
2022-09-18T05:45:36.808Z,1010.08
2022-09-18T05:46:36.827Z,1010.11
2022-09-18T05:47:36.800Z,1010.15
2022-09-18T05:48:36.796Z,1010.12
2022-09-18T05:49:36.793Z,1010.16
2022-09-18T05:50:36.791Z,1010.18
2022-09-18T05:51:36.794Z,1010.24
2022-09-18T05:52:36.786Z,1010.13
2022-09-18T05:53:36.789Z,1010.17
2022-09-18T05:54:36.781Z,1010.21
2022-09-18T05:55:36.782Z,1010.21
2022-09-18T05:56:36.777Z,1010.21
2022-09-18T05:57:36.899Z,1010.22
2022-09-18T05:58:36.771Z,1010.23
2022-09-18T05:59:36.770Z,1010.22
2022-09-18T06:00:36.771Z,1010.17
2022-09-18T06:01:36.800Z,1010.20
2022-09-18T06:02:36.843Z,1010.21
2022-09-18T06:03:36.763Z,1010.17
2022-09-18T06:04:36.757Z,1010.16
2022-09-18T06:05:36.755Z,1010.12
2022-09-18T06:06:36.754Z,1010.17
2022-09-18T06:07:36.749Z,1010.16
2022-09-18T06:08:36.750Z,1010.18
2022-09-18T06:09:36.750Z,1010.13
2022-09-18T06:10:36.743Z,1010.14
2022-09-18T06:11:36.743Z,1010.11
2022-09-18T06:12:36.738Z,1010.06
2022-09-18T06:13:36.754Z,1010.05
2022-09-18T06:14:36.732Z,1010.08
2022-09-18T06:15:36.731Z,1010.11
2022-09-18T06:16:41.472Z,1010.15
2022-09-18T06:17:36.727Z,1010.12
2022-09-18T06:18:36.722Z,1010.15
2022-09-18T06:19:36.720Z,1010.17
2022-09-18T06:20:36.718Z,1010.19
2022-09-18T06:21:36.717Z,1010.18
2022-09-18T06:22:36.712Z,1010.22
2022-09-18T06:23:36.714Z,1010.23
2022-09-18T06:24:36.711Z,1010.22
2022-09-18T06:25:36.709Z,1010.22
2022-09-18T06:26:36.702Z,1010.26
2022-09-18T06:27:36.703Z,1010.22
2022-09-18T06:28:36.702Z,1010.20
2022-09-18T06:29:36.817Z,1010.17
2022-09-18T06:30:36.696Z,1010.18
2022-09-18T06:31:36.770Z,1010.20
2022-09-18T06:32:36.689Z,1010.17
2022-09-18T06:33:36.689Z,1010.19
2022-09-18T06:34:38.762Z,1010.21
2022-09-18T06:35:36.686Z,1010.18
2022-09-18T06:36:36.680Z,1010.16
2022-09-18T06:37:36.679Z,1010.15
2022-09-18T06:38:36.677Z,1010.19
2022-09-18T06:39:36.677Z,1010.18
2022-09-18T06:40:36.707Z,1010.18
2022-09-18T06:41:36.671Z,1010.17
2022-09-18T06:42:36.665Z,1010.16
2022-09-18T06:43:36.662Z,1010.17
2022-09-18T06:44:36.660Z,1010.24
2022-09-18T06:45:36.775Z,1010.23
2022-09-18T06:46:36.694Z,1010.23
2022-09-18T06:47:36.659Z,1010.26
2022-09-18T06:48:36.654Z,1010.26
2022-09-18T06:49:36.653Z,1010.23
2022-09-18T06:50:36.644Z,1010.23
2022-09-18T06:51:36.651Z,1010.17
2022-09-18T06:52:36.640Z,1010.17
2022-09-18T06:53:36.641Z,1010.17
2022-09-18T06:54:36.636Z,1010.12
2022-09-18T06:55:36.637Z,1010.13
2022-09-18T06:56:36.635Z,1010.14
2022-09-18T06:57:36.630Z,1010.13
2022-09-18T06:58:36.628Z,1010.14
2022-09-18T06:59:36.663Z,1010.09
2022-09-18T07:00:36.657Z,1010.13
2022-09-18T07:01:36.813Z,1010.12
2022-09-18T07:02:36.676Z,1010.10
2022-09-18T07:03:36.616Z,1010.11
2022-09-18T07:04:36.612Z,1010.11
2022-09-18T07:05:36.615Z,1010.16
2022-09-18T07:06:36.607Z,1010.17
2022-09-18T07:07:36.607Z,1010.17
2022-09-18T07:08:36.603Z,1010.21
2022-09-18T07:09:36.605Z,1010.23
2022-09-18T07:10:36.597Z,1010.16
2022-09-18T07:11:36.595Z,1010.13
2022-09-18T07:12:36.595Z,1010.08
2022-09-18T07:13:36.593Z,1010.09
2022-09-18T07:14:36.586Z,1010.08
2022-09-18T07:15:36.584Z,1010.06
2022-09-18T07:16:36.677Z,1010.02
2022-09-18T07:17:36.700Z,1009.99
2022-09-18T07:18:36.579Z,1009.94
2022-09-18T07:19:36.577Z,1009.95
2022-09-18T07:20:36.571Z,1009.99
2022-09-18T07:21:36.570Z,1009.94
2022-09-18T07:22:36.567Z,1009.99
2022-09-18T07:23:36.568Z,1009.97
2022-09-18T07:24:36.562Z,1010.03
2022-09-18T07:25:36.568Z,1010.01
2022-09-18T07:26:36.558Z,1009.98
2022-09-18T07:27:36.558Z,1010.02
2022-09-18T07:28:36.552Z,1010.04
2022-09-18T07:29:36.549Z,1010.12
2022-09-18T07:30:36.545Z,1010.14
2022-09-18T07:31:36.658Z,1010.09
2022-09-18T07:32:36.547Z,1010.10
2022-09-18T07:33:36.660Z,1010.18
2022-09-18T07:34:36.536Z,1010.21
2022-09-18T07:35:36.534Z,1010.12
2022-09-18T07:36:36.532Z,1010.13
2022-09-18T07:37:36.531Z,1010.09
2022-09-18T07:38:36.523Z,1010.05
2022-09-18T07:39:36.523Z,1010.07
2022-09-18T07:40:36.542Z,1009.98
2022-09-18T07:41:36.518Z,1009.99
2022-09-18T07:42:36.517Z,1010.07
2022-09-18T07:43:36.514Z,1010.03
2022-09-18T07:44:36.507Z,1010.01
2022-09-18T07:45:36.513Z,1010.03
2022-09-18T07:46:36.555Z,1009.96
2022-09-18T07:47:36.504Z,1009.93
2022-09-18T07:48:36.495Z,1009.90
2022-09-18T07:49:36.612Z,1009.89
2022-09-18T07:50:36.514Z,1009.94
2022-09-18T07:51:36.486Z,1010.00
2022-09-18T07:52:36.483Z,1009.95
2022-09-18T07:53:36.480Z,1009.95
2022-09-18T07:54:36.477Z,1009.91
2022-09-18T07:55:36.476Z,1009.90
2022-09-18T07:56:36.474Z,1009.90
2022-09-18T07:57:36.473Z,1009.91
2022-09-18T07:58:36.472Z,1009.94
2022-09-18T07:59:36.472Z,1009.94
2022-09-18T08:00:36.462Z,1009.93
2022-09-18T08:01:36.578Z,1009.96
2022-09-18T08:02:36.670Z,1009.95
2022-09-18T08:03:41.037Z,1009.91
2022-09-18T08:04:36.451Z,1009.91
2022-09-18T08:05:36.565Z,1009.92
2022-09-18T08:06:36.444Z,1009.90
2022-09-18T08:07:36.445Z,1009.91
2022-09-18T08:08:36.438Z,1009.91
2022-09-18T08:09:36.442Z,1009.95
2022-09-18T08:10:36.434Z,1009.93
2022-09-18T08:11:36.429Z,1009.96
2022-09-18T08:12:36.432Z,1009.96
2022-09-18T08:13:36.429Z,1009.93
2022-09-18T08:14:36.427Z,1009.91
2022-09-18T08:15:36.420Z,1009.89
2022-09-18T08:16:36.525Z,1009.95
2022-09-18T08:17:36.417Z,1009.94
2022-09-18T08:18:36.412Z,1009.97
2022-09-18T08:19:36.411Z,1009.97
2022-09-18T08:20:36.407Z,1009.97
2022-09-18T08:21:36.522Z,1009.92
2022-09-18T08:22:36.406Z,1009.97
2022-09-18T08:23:36.400Z,1009.97
2022-09-18T08:24:36.396Z,1009.98
2022-09-18T08:25:36.395Z,1010.06
2022-09-18T08:26:36.390Z,1010.05
2022-09-18T08:27:36.394Z,1010.10
2022-09-18T08:28:36.395Z,1010.02
2022-09-18T08:29:36.390Z,1010.05
2022-09-18T08:30:36.384Z,1010.05
2022-09-18T08:31:36.428Z,1010.05
2022-09-18T08:32:36.379Z,1010.08
2022-09-18T08:33:36.377Z,1010.05
2022-09-18T08:34:36.384Z,1010.11
2022-09-18T08:35:36.385Z,1010.10
2022-09-18T08:36:36.370Z,1010.16
2022-09-18T08:37:36.488Z,1010.11
2022-09-18T08:38:36.365Z,1010.09
2022-09-18T08:39:36.365Z,1010.11
2022-09-18T08:40:36.413Z,1010.11
2022-09-18T08:41:36.366Z,1010.13
2022-09-18T08:42:36.365Z,1010.12
2022-09-18T08:43:36.353Z,1010.12
2022-09-18T08:44:36.352Z,1010.06
2022-09-18T08:45:36.344Z,1010.07
2022-09-18T08:46:36.494Z,1010.01
2022-09-18T08:47:36.339Z,1009.97
2022-09-18T08:48:36.340Z,1009.99
2022-09-18T08:49:36.332Z,1010.02
2022-09-18T08:50:38.536Z,1009.95
2022-09-18T08:51:36.326Z,1010.04
2022-09-18T08:52:36.327Z,1010.05
2022-09-18T08:53:36.438Z,1010.05
2022-09-18T08:54:36.321Z,1010.04
2022-09-18T08:55:36.315Z,1010.01
2022-09-18T08:56:36.318Z,1010.01
2022-09-18T08:57:36.442Z,1010.03
2022-09-18T08:58:36.316Z,1010.00
2022-09-18T08:59:36.312Z,1010.00
2022-09-18T09:00:36.385Z,1010.00
2022-09-18T09:01:36.304Z,1010.02
2022-09-18T09:02:36.338Z,1010.03
2022-09-18T09:03:36.300Z,1009.99
2022-09-18T09:04:36.295Z,1009.93
2022-09-18T09:05:36.292Z,1009.90
2022-09-18T09:06:36.299Z,1009.88
2022-09-18T09:07:36.289Z,1009.87
2022-09-18T09:08:36.287Z,1009.87
2022-09-18T09:09:36.400Z,1009.80
2022-09-18T09:10:36.280Z,1009.83
2022-09-18T09:11:36.282Z,1009.85
2022-09-18T09:12:36.276Z,1009.85
2022-09-18T09:13:36.271Z,1009.83
2022-09-18T09:14:56.064Z,1009.89
2022-09-18T09:15:36.268Z,1009.89
2022-09-18T09:16:36.333Z,1009.91
2022-09-18T09:17:36.266Z,1009.97
2022-09-18T09:18:36.261Z,1009.96
2022-09-18T09:19:36.258Z,1009.96
2022-09-18T09:20:36.261Z,1009.96
2022-09-18T09:21:36.254Z,1009.96
2022-09-18T09:22:36.255Z,1009.95
2022-09-18T09:23:36.249Z,1009.92
2022-09-18T09:24:36.247Z,1009.92
2022-09-18T09:25:36.359Z,1009.93
2022-09-18T09:26:36.243Z,1009.85
2022-09-18T09:27:36.238Z,1009.84
2022-09-18T09:28:36.238Z,1009.85
2022-09-18T09:29:36.236Z,1009.89
2022-09-18T09:30:36.232Z,1009.85
2022-09-18T09:31:36.333Z,1009.90
2022-09-18T09:32:36.229Z,1009.89
2022-09-18T09:33:36.225Z,1009.86
2022-09-18T09:34:36.226Z,1009.89
2022-09-18T09:35:36.224Z,1009.87
2022-09-18T09:36:36.220Z,1009.86
2022-09-18T09:37:36.214Z,1009.82
2022-09-18T09:38:36.214Z,1009.91
2022-09-18T09:39:36.220Z,1009.89
2022-09-18T09:40:36.316Z,1009.91
2022-09-18T09:41:36.317Z,1009.87
2022-09-18T09:42:36.203Z,1009.81
2022-09-18T09:43:36.200Z,1009.82
2022-09-18T09:44:36.201Z,1009.80
2022-09-18T09:45:36.203Z,1009.79
2022-09-18T09:46:36.266Z,1009.81
2022-09-18T09:47:36.211Z,1009.82
2022-09-18T09:48:36.191Z,1009.76
2022-09-18T09:49:36.186Z,1009.73
2022-09-18T09:50:36.185Z,1009.77
2022-09-18T09:51:36.182Z,1009.79
2022-09-18T09:52:36.183Z,1009.74
2022-09-18T09:53:36.178Z,1009.76
2022-09-18T09:54:36.178Z,1009.75
2022-09-18T09:55:36.422Z,1009.79
2022-09-18T09:56:36.171Z,1009.71
2022-09-18T09:57:36.283Z,1009.71
2022-09-18T09:58:36.169Z,1009.74
2022-09-18T09:59:36.167Z,1009.75
2022-09-18T10:00:36.219Z,1009.67
2022-09-18T10:01:36.277Z,1009.70
2022-09-18T10:02:36.157Z,1009.65
2022-09-18T10:03:36.154Z,1009.64
2022-09-18T10:04:36.154Z,1009.66
2022-09-18T10:05:36.157Z,1009.63
2022-09-18T10:06:36.152Z,1009.65
2022-09-18T10:07:36.145Z,1009.62
2022-09-18T10:08:36.144Z,1009.61
2022-09-18T10:09:36.144Z,1009.59
2022-09-18T10:10:36.158Z,1009.57
2022-09-18T10:11:36.136Z,1009.57
2022-09-18T10:12:36.136Z,1009.56
2022-09-18T10:13:36.252Z,1009.54
2022-09-18T10:14:36.129Z,1009.55
2022-09-18T10:15:36.132Z,1009.53
2022-09-18T10:16:36.194Z,1009.50
2022-09-18T10:17:36.126Z,1009.54
2022-09-18T10:18:36.123Z,1009.51
2022-09-18T10:19:36.119Z,1009.49
2022-09-18T10:20:36.117Z,1009.43
2022-09-18T10:21:36.114Z,1009.46
2022-09-18T10:22:36.117Z,1009.50
2022-09-18T10:23:36.110Z,1009.49
2022-09-18T10:24:36.113Z,1009.47
2022-09-18T10:25:36.106Z,1009.45
2022-09-18T10:26:36.108Z,1009.37
2022-09-18T10:27:36.099Z,1009.37
2022-09-18T10:28:36.101Z,1009.36
2022-09-18T10:29:36.350Z,1009.34
2022-09-18T10:30:36.125Z,1009.35
2022-09-18T10:31:36.156Z,1009.34
2022-09-18T10:32:36.089Z,1009.42
2022-09-18T10:33:36.089Z,1009.40
2022-09-18T10:34:36.089Z,1009.43
2022-09-18T10:35:36.082Z,1009.44
2022-09-18T10:36:36.086Z,1009.43
2022-09-18T10:37:36.089Z,1009.39
2022-09-18T10:38:36.079Z,1009.34
2022-09-18T10:39:36.074Z,1009.38
2022-09-18T10:40:36.151Z,1009.35
2022-09-18T10:41:36.072Z,1009.33
2022-09-18T10:42:36.068Z,1009.37
2022-09-18T10:43:36.068Z,1009.34
2022-09-18T10:44:36.064Z,1009.39
2022-09-18T10:45:36.174Z,1009.39
2022-09-18T10:46:36.116Z,1009.38
2022-09-18T10:47:36.056Z,1009.34
2022-09-18T10:48:36.057Z,1009.42
2022-09-18T10:49:36.058Z,1009.45
2022-09-18T10:50:36.056Z,1009.39
2022-09-18T10:51:36.047Z,1009.39
2022-09-18T10:52:36.046Z,1009.38
2022-09-18T10:53:36.045Z,1009.39
2022-09-18T10:54:36.044Z,1009.35
2022-09-18T10:55:36.041Z,1009.32
2022-09-18T10:56:36.042Z,1009.34
2022-09-18T10:57:36.037Z,1009.34
2022-09-18T10:58:36.036Z,1009.34
2022-09-18T10:59:36.043Z,1009.35
2022-09-18T11:00:36.060Z,1009.35
2022-09-18T11:01:36.102Z,1009.30
2022-09-18T11:02:36.052Z,1009.32
2022-09-18T11:03:36.022Z,1009.33
2022-09-18T11:04:36.021Z,1009.28
2022-09-18T11:05:36.018Z,1009.25
2022-09-18T11:06:36.017Z,1009.26
2022-09-18T11:07:36.011Z,1009.26
2022-09-18T11:08:36.014Z,1009.25
2022-09-18T11:09:36.007Z,1009.21
2022-09-18T11:10:36.005Z,1009.20
2022-09-18T11:11:36.001Z,1009.22
2022-09-18T11:12:36.002Z,1009.20
2022-09-18T11:13:36.002Z,1009.23
2022-09-18T11:14:35.997Z,1009.24
2022-09-18T11:15:35.995Z,1009.23
2022-09-18T11:16:36.051Z,1009.21
2022-09-18T11:17:36.105Z,1009.24
2022-09-18T11:18:35.984Z,1009.27
2022-09-18T11:19:35.982Z,1009.20
2022-09-18T11:20:35.980Z,1009.21
2022-09-18T11:21:35.979Z,1009.23
2022-09-18T11:22:35.979Z,1009.29
2022-09-18T11:23:35.972Z,1009.25
2022-09-18T11:24:35.970Z,1009.30
2022-09-18T11:25:35.970Z,1009.23
2022-09-18T11:26:35.974Z,1009.24
2022-09-18T11:27:35.963Z,1009.30
2022-09-18T11:28:35.966Z,1009.25
2022-09-18T11:29:35.960Z,1009.18
2022-09-18T11:30:35.963Z,1009.22
2022-09-18T11:31:36.018Z,1009.12
2022-09-18T11:32:35.955Z,1009.19
2022-09-18T11:33:36.063Z,1009.23
2022-09-18T11:34:35.946Z,1009.23
2022-09-18T11:35:35.945Z,1009.26
2022-09-18T11:36:35.943Z,1009.24
2022-09-18T11:37:35.938Z,1009.31
2022-09-18T11:38:35.939Z,1009.27
2022-09-18T11:39:35.934Z,1009.22
2022-09-18T11:40:35.957Z,1009.17
2022-09-18T11:41:35.932Z,1009.09
2022-09-18T11:42:35.927Z,1009.11
2022-09-18T11:43:35.928Z,1009.14
2022-09-18T11:44:35.923Z,1009.26
2022-09-18T11:45:35.923Z,1009.19
2022-09-18T11:46:35.964Z,1009.24
2022-09-18T11:47:35.916Z,1009.25
2022-09-18T11:48:35.917Z,1009.15
2022-09-18T11:49:36.024Z,1009.16
2022-09-18T11:50:35.912Z,1009.20
2022-09-18T11:51:35.906Z,1009.25
2022-09-18T11:52:35.911Z,1009.30
2022-09-18T11:53:35.901Z,1009.24
2022-09-18T11:54:35.899Z,1009.34
2022-09-18T11:55:35.896Z,1009.29
2022-09-18T11:56:35.900Z,1009.29
2022-09-18T11:57:35.891Z,1009.32
2022-09-18T11:58:35.896Z,1009.34
2022-09-18T11:59:35.887Z,1009.33
2022-09-18T12:00:35.886Z,1009.44
2022-09-18T12:01:35.954Z,1009.42
2022-09-18T12:02:36.047Z,1009.52
2022-09-18T12:03:35.876Z,1009.62
2022-09-18T12:04:35.877Z,1009.78
2022-09-18T12:05:35.989Z,1009.61